sensor_id;sensor_type;location;lat;lon;timestamp;temperature;humidity
45803;DHT22;31504;51.716;9.184;2023-06-22T00:01:31;25.30;61.30
45803;DHT22;31504;51.716;9.184;2023-06-22T00:04:31;25.30;61.30
45803;DHT22;31504;51.716;9.184;2023-06-22T00:07:32;25.30;61.30
45803;DHT22;31504;51.716;9.184;2023-06-22T00:10:32;25.30;61.30
45803;DHT22;31504;51.716;9.184;2023-06-22T00:13:32;25.30;61.30
45803;DHT22;31504;51.716;9.184;2023-06-22T00:16:33;25.30;61.30
45803;DHT22;31504;51.716;9.184;2023-06-22T00:19:33;25.30;61.30
45803;DHT22;31504;51.716;9.184;2023-06-22T00:22:35;25.30;61.30
45803;DHT22;31504;51.716;9.184;2023-06-22T00:25:39;25.30;61.30
45803;DHT22;31504;51.716;9.184;2023-06-22T00:28:42;25.30;61.30
45803;DHT22;31504;51.716;9.184;2023-06-22T00:31:42;25.30;61.20
45803;DHT22;31504;51.716;9.184;2023-06-22T00:34:43;25.30;61.30
45803;DHT22;31504;51.716;9.184;2023-06-22T00:37:43;25.30;61.20
45803;DHT22;31504;51.716;9.184;2023-06-22T00:40:44;25.30;61.20
45803;DHT22;31504;51.716;9.184;2023-06-22T00:43:44;25.30;61.20
45803;DHT22;31504;51.716;9.184;2023-06-22T00:46:45;25.30;61.20
45803;DHT22;31504;51.716;9.184;2023-06-22T00:49:46;25.30;61.20
45803;DHT22;31504;51.716;9.184;2023-06-22T00:52:54;25.30;61.20
45803;DHT22;31504;51.716;9.184;2023-06-22T00:55:56;25.30;61.20
45803;DHT22;31504;51.716;9.184;2023-06-22T00:59:00;25.30;61.20
45803;DHT22;31504;51.716;9.184;2023-06-22T01:02:00;25.30;61.20
45803;DHT22;31504;51.716;9.184;2023-06-22T01:05:01;25.30;61.20
45803;DHT22;31504;51.716;9.184;2023-06-22T01:08:05;25.30;61.20
45803;DHT22;31504;51.716;9.184;2023-06-22T01:11:10;25.30;61.20
45803;DHT22;31504;51.716;9.184;2023-06-22T01:14:15;25.30;61.20
45803;DHT22;31504;51.716;9.184;2023-06-22T01:17:15;25.30;61.20
45803;DHT22;31504;51.716;9.184;2023-06-22T01:20:18;25.30;61.20
45803;DHT22;31504;51.716;9.184;2023-06-22T01:23:26;25.30;61.10
45803;DHT22;31504;51.716;9.184;2023-06-22T01:29:31;25.30;61.10
45803;DHT22;31504;51.716;9.184;2023-06-22T01:32:33;25.30;61.10
45803;DHT22;31504;51.716;9.184;2023-06-22T01:35:34;25.30;61.20
45803;DHT22;31504;51.716;9.184;2023-06-22T01:38:35;25.30;61.10
45803;DHT22;31504;51.716;9.184;2023-06-22T01:41:37;25.30;61.10
45803;DHT22;31504;51.716;9.184;2023-06-22T01:44:37;25.30;61.10
45803;DHT22;31504;51.716;9.184;2023-06-22T01:47:38;25.30;61.10
45803;DHT22;31504;51.716;9.184;2023-06-22T01:50:39;25.30;61.10
45803;DHT22;31504;51.716;9.184;2023-06-22T01:53:40;25.30;61.10
45803;DHT22;31504;51.716;9.184;2023-06-22T01:56:41;25.30;61.10
45803;DHT22;31504;51.716;9.184;2023-06-22T01:59:48;25.30;61.00
45803;DHT22;31504;51.716;9.184;2023-06-22T02:02:53;25.30;61.10
45803;DHT22;31504;51.716;9.184;2023-06-22T02:05:58;25.30;61.00
45803;DHT22;31504;51.716;9.184;2023-06-22T02:09:02;25.30;61.00
45803;DHT22;31504;51.716;9.184;2023-06-22T02:12:03;25.30;61.10
45803;DHT22;31504;51.716;9.184;2023-06-22T02:15:04;25.30;61.00
45803;DHT22;31504;51.716;9.184;2023-06-22T02:18:05;25.30;61.00
45803;DHT22;31504;51.716;9.184;2023-06-22T02:21:05;25.30;61.00
45803;DHT22;31504;51.716;9.184;2023-06-22T02:24:06;25.30;61.00
45803;DHT22;31504;51.716;9.184;2023-06-22T02:27:06;25.40;61.90
45803;DHT22;31504;51.716;9.184;2023-06-22T02:30:08;25.30;62.90
45803;DHT22;31504;51.716;9.184;2023-06-22T02:33:09;25.10;63.80
45803;DHT22;31504;51.716;9.184;2023-06-22T02:36:10;25.00;64.40
45803;DHT22;31504;51.716;9.184;2023-06-22T02:39:13;24.90;64.90
45803;DHT22;31504;51.716;9.184;2023-06-22T02:42:13;24.90;65.30
45803;DHT22;31504;51.716;9.184;2023-06-22T02:45:14;24.80;65.50
45803;DHT22;31504;51.716;9.184;2023-06-22T02:48:14;24.80;65.70
45803;DHT22;31504;51.716;9.184;2023-06-22T02:51:15;24.80;65.70
45803;DHT22;31504;51.716;9.184;2023-06-22T02:54:15;24.70;65.70
45803;DHT22;31504;51.716;9.184;2023-06-22T02:57:16;24.70;65.80
45803;DHT22;31504;51.716;9.184;2023-06-22T03:00:17;24.70;66.00
45803;DHT22;31504;51.716;9.184;2023-06-22T03:03:21;24.80;63.60
45803;DHT22;31504;51.716;9.184;2023-06-22T03:06:21;25.10;62.60
45803;DHT22;31504;51.716;9.184;2023-06-22T03:09:28;25.20;62.20
45803;DHT22;31504;51.716;9.184;2023-06-22T03:12:29;25.20;62.00
45803;DHT22;31504;51.716;9.184;2023-06-22T03:15:29;25.20;61.90
45803;DHT22;31504;51.716;9.184;2023-06-22T03:18:31;25.30;61.80
45803;DHT22;31504;51.716;9.184;2023-06-22T03:21:32;25.30;61.80
45803;DHT22;31504;51.716;9.184;2023-06-22T03:24:32;25.30;61.60
45803;DHT22;31504;51.716;9.184;2023-06-22T03:27:34;25.20;61.50
45803;DHT22;31504;51.716;9.184;2023-06-22T03:30:35;25.30;61.50
45803;DHT22;31504;51.716;9.184;2023-06-22T03:33:35;25.20;61.30
45803;DHT22;31504;51.716;9.184;2023-06-22T03:36:36;25.30;61.40
45803;DHT22;31504;51.716;9.184;2023-06-22T03:39:36;25.30;61.30
45803;DHT22;31504;51.716;9.184;2023-06-22T03:42:37;25.20;61.20
45803;DHT22;31504;51.716;9.184;2023-06-22T03:45:37;25.30;61.30
45803;DHT22;31504;51.716;9.184;2023-06-22T03:48:38;25.20;61.20
45803;DHT22;31504;51.716;9.184;2023-06-22T03:51:38;25.30;61.30
45803;DHT22;31504;51.716;9.184;2023-06-22T03:54:39;25.30;61.20
45803;DHT22;31504;51.716;9.184;2023-06-22T03:57:39;25.30;61.20
45803;DHT22;31504;51.716;9.184;2023-06-22T04:00:40;25.30;61.20
45803;DHT22;31504;51.716;9.184;2023-06-22T04:03:40;25.30;61.20
45803;DHT22;31504;51.716;9.184;2023-06-22T04:06:41;25.20;61.10
45803;DHT22;31504;51.716;9.184;2023-06-22T04:09:41;25.20;61.10
45803;DHT22;31504;51.716;9.184;2023-06-22T04:12:42;25.30;61.10
45803;DHT22;31504;51.716;9.184;2023-06-22T04:15:42;25.30;61.10
45803;DHT22;31504;51.716;9.184;2023-06-22T04:18:43;25.20;61.00
45803;DHT22;31504;51.716;9.184;2023-06-22T04:21:43;25.20;61.00
45803;DHT22;31504;51.716;9.184;2023-06-22T04:24:44;25.30;61.10
45803;DHT22;31504;51.716;9.184;2023-06-22T04:27:45;25.20;61.00
45803;DHT22;31504;51.716;9.184;2023-06-22T04:30:46;25.30;61.00
45803;DHT22;31504;51.716;9.184;2023-06-22T04:33:46;25.30;61.00
45803;DHT22;31504;51.716;9.184;2023-06-22T04:36:47;25.30;61.00
45803;DHT22;31504;51.716;9.184;2023-06-22T04:39:47;25.20;60.90
45803;DHT22;31504;51.716;9.184;2023-06-22T04:42:48;25.20;60.90
45803;DHT22;31504;51.716;9.184;2023-06-22T04:45:53;25.30;61.00
45803;DHT22;31504;51.716;9.184;2023-06-22T04:48:53;25.30;61.00
45803;DHT22;31504;51.716;9.184;2023-06-22T04:51:54;25.30;61.00
45803;DHT22;31504;51.716;9.184;2023-06-22T04:54:55;25.30;61.00
45803;DHT22;31504;51.716;9.184;2023-06-22T04:57:57;25.30;61.00
45803;DHT22;31504;51.716;9.184;2023-06-22T05:01:04;25.30;61.00
45803;DHT22;31504;51.716;9.184;2023-06-22T05:04:05;25.30;61.00
45803;DHT22;31504;51.716;9.184;2023-06-22T05:07:06;25.30;60.90
45803;DHT22;31504;51.716;9.184;2023-06-22T05:10:07;25.30;61.00
45803;DHT22;31504;51.716;9.184;2023-06-22T05:13:07;25.30;61.00
45803;DHT22;31504;51.716;9.184;2023-06-22T05:16:08;25.20;60.80
45803;DHT22;31504;51.716;9.184;2023-06-22T05:19:08;25.30;61.00
45803;DHT22;31504;51.716;9.184;2023-06-22T05:22:09;25.30;60.90
45803;DHT22;31504;51.716;9.184;2023-06-22T05:25:11;25.20;60.80
45803;DHT22;31504;51.716;9.184;2023-06-22T05:28:12;25.20;60.80
45803;DHT22;31504;51.716;9.184;2023-06-22T05:31:13;25.30;60.90
45803;DHT22;31504;51.716;9.184;2023-06-22T05:34:13;25.30;60.90
45803;DHT22;31504;51.716;9.184;2023-06-22T05:37:14;25.30;60.90
45803;DHT22;31504;51.716;9.184;2023-06-22T05:40:14;25.30;60.90
45803;DHT22;31504;51.716;9.184;2023-06-22T05:43:15;25.30;60.90
45803;DHT22;31504;51.716;9.184;2023-06-22T05:46:17;25.30;60.90
45803;DHT22;31504;51.716;9.184;2023-06-22T05:49:17;25.30;61.00
45803;DHT22;31504;51.716;9.184;2023-06-22T05:52:18;25.20;60.80
45803;DHT22;31504;51.716;9.184;2023-06-22T05:55:18;25.30;61.00
45803;DHT22;31504;51.716;9.184;2023-06-22T05:58:19;25.30;60.90
45803;DHT22;31504;51.716;9.184;2023-06-22T06:01:19;25.20;60.90
45803;DHT22;31504;51.716;9.184;2023-06-22T06:04:20;25.30;60.90
45803;DHT22;31504;51.716;9.184;2023-06-22T06:07:21;25.30;61.10
45803;DHT22;31504;51.716;9.184;2023-06-22T06:10:22;25.30;60.90
45803;DHT22;31504;51.716;9.184;2023-06-22T06:13:22;25.30;60.90
45803;DHT22;31504;51.716;9.184;2023-06-22T06:16:23;25.30;60.80
45803;DHT22;31504;51.716;9.184;2023-06-22T06:19:23;25.30;60.80
45803;DHT22;31504;51.716;9.184;2023-06-22T06:22:23;25.30;60.80
45803;DHT22;31504;51.716;9.184;2023-06-22T06:25:24;25.30;60.80
45803;DHT22;31504;51.716;9.184;2023-06-22T06:28:25;25.30;60.80
45803;DHT22;31504;51.716;9.184;2023-06-22T06:31:25;25.30;60.80
45803;DHT22;31504;51.716;9.184;2023-06-22T06:34:28;25.30;60.80
45803;DHT22;31504;51.716;9.184;2023-06-22T06:37:29;25.30;60.80
45803;DHT22;31504;51.716;9.184;2023-06-22T06:40:29;25.30;60.80
45803;DHT22;31504;51.716;9.184;2023-06-22T06:43:31;25.30;60.80
45803;DHT22;31504;51.716;9.184;2023-06-22T06:46:32;25.30;60.80
45803;DHT22;31504;51.716;9.184;2023-06-22T06:49:33;25.30;60.80
45803;DHT22;31504;51.716;9.184;2023-06-22T06:52:33;25.30;60.80
45803;DHT22;31504;51.716;9.184;2023-06-22T06:55:34;25.30;60.80
45803;DHT22;31504;51.716;9.184;2023-06-22T06:58:34;25.30;60.80
45803;DHT22;31504;51.716;9.184;2023-06-22T07:01:35;25.30;60.80
45803;DHT22;31504;51.716;9.184;2023-06-22T07:04:36;25.30;60.80
45803;DHT22;31504;51.716;9.184;2023-06-22T07:07:36;25.30;60.80
45803;DHT22;31504;51.716;9.184;2023-06-22T07:10:37;25.30;60.80
45803;DHT22;31504;51.716;9.184;2023-06-22T07:13:37;25.30;60.80
45803;DHT22;31504;51.716;9.184;2023-06-22T07:16:38;25.30;60.80
45803;DHT22;31504;51.716;9.184;2023-06-22T07:19:39;25.30;60.80
45803;DHT22;31504;51.716;9.184;2023-06-22T07:22:41;25.30;60.80
45803;DHT22;31504;51.716;9.184;2023-06-22T07:25:42;25.30;60.80
45803;DHT22;31504;51.716;9.184;2023-06-22T07:28:42;25.30;60.80
45803;DHT22;31504;51.716;9.184;2023-06-22T07:31:44;25.30;60.70
45803;DHT22;31504;51.716;9.184;2023-06-22T07:34:44;25.30;60.80
45803;DHT22;31504;51.716;9.184;2023-06-22T07:37:45;25.30;60.80
45803;DHT22;31504;51.716;9.184;2023-06-22T07:40:45;25.30;60.70
45803;DHT22;31504;51.716;9.184;2023-06-22T07:43:46;25.30;60.80
45803;DHT22;31504;51.716;9.184;2023-06-22T07:46:46;25.30;60.70
45803;DHT22;31504;51.716;9.184;2023-06-22T07:49:47;25.30;60.80
45803;DHT22;31504;51.716;9.184;2023-06-22T07:52:47;25.30;61.00
45803;DHT22;31504;51.716;9.184;2023-06-22T07:55:48;25.30;60.70
45803;DHT22;31504;51.716;9.184;2023-06-22T07:58:49;25.30;60.70
45803;DHT22;31504;51.716;9.184;2023-06-22T08:01:49;25.30;60.70
45803;DHT22;31504;51.716;9.184;2023-06-22T08:04:50;25.30;60.70
45803;DHT22;31504;51.716;9.184;2023-06-22T08:07:50;25.30;64.20
45803;DHT22;31504;51.716;9.184;2023-06-22T08:10:51;25.30;64.40
45803;DHT22;31504;51.716;9.184;2023-06-22T08:13:51;25.30;65.30
45803;DHT22;31504;51.716;9.184;2023-06-22T08:16:52;25.30;65.90
45803;DHT22;31504;51.716;9.184;2023-06-22T08:19:52;25.30;66.40
45803;DHT22;31504;51.716;9.184;2023-06-22T08:22:53;25.30;66.80
45803;DHT22;31504;51.716;9.184;2023-06-22T08:25:54;25.30;67.20
45803;DHT22;31504;51.716;9.184;2023-06-22T08:28:54;25.30;67.40
45803;DHT22;31504;51.716;9.184;2023-06-22T08:31:54;25.30;67.60
45803;DHT22;31504;51.716;9.184;2023-06-22T08:34:56;25.30;67.90
45803;DHT22;31504;51.716;9.184;2023-06-22T08:37:56;25.30;67.80
45803;DHT22;31504;51.716;9.184;2023-06-22T08:40:58;25.30;68.00
45803;DHT22;31504;51.716;9.184;2023-06-22T08:43:58;25.20;68.80
45803;DHT22;31504;51.716;9.184;2023-06-22T08:46:59;25.20;69.40
45803;DHT22;31504;51.716;9.184;2023-06-22T08:50:00;25.20;70.10
45803;DHT22;31504;51.716;9.184;2023-06-22T08:53:03;25.20;70.70
45803;DHT22;31504;51.716;9.184;2023-06-22T08:56:03;25.20;71.00
45803;DHT22;31504;51.716;9.184;2023-06-22T08:59:04;25.20;69.70
45803;DHT22;31504;51.716;9.184;2023-06-22T09:02:07;25.20;69.40
45803;DHT22;31504;51.716;9.184;2023-06-22T09:05:08;25.20;69.70
45803;DHT22;31504;51.716;9.184;2023-06-22T09:08:08;25.20;70.20
45803;DHT22;31504;51.716;9.184;2023-06-22T09:11:09;25.20;70.60
45803;DHT22;31504;51.716;9.184;2023-06-22T09:14:10;25.20;71.20
45803;DHT22;31504;51.716;9.184;2023-06-22T09:17:10;25.20;71.10
45803;DHT22;31504;51.716;9.184;2023-06-22T09:20:11;25.20;71.20
45803;DHT22;31504;51.716;9.184;2023-06-22T09:23:11;25.20;71.40
45803;DHT22;31504;51.716;9.184;2023-06-22T09:26:12;25.30;71.80
45803;DHT22;31504;51.716;9.184;2023-06-22T09:29:12;25.20;71.40
45803;DHT22;31504;51.716;9.184;2023-06-22T09:32:13;25.30;71.70
45803;DHT22;31504;51.716;9.184;2023-06-22T09:35:13;25.30;71.60
45803;DHT22;31504;51.716;9.184;2023-06-22T09:38:14;25.30;71.50
45803;DHT22;31504;51.716;9.184;2023-06-22T09:41:14;25.30;71.10
45803;DHT22;31504;51.716;9.184;2023-06-22T09:44:15;25.30;70.80
45803;DHT22;31504;51.716;9.184;2023-06-22T09:47:16;25.30;70.80
45803;DHT22;31504;51.716;9.184;2023-06-22T09:50:16;25.30;70.50
45803;DHT22;31504;51.716;9.184;2023-06-22T09:53:17;25.30;70.40
45803;DHT22;31504;51.716;9.184;2023-06-22T09:56:17;25.30;70.40
45803;DHT22;31504;51.716;9.184;2023-06-22T09:59:18;25.30;69.80
45803;DHT22;31504;51.716;9.184;2023-06-22T10:02:18;25.40;69.60
45803;DHT22;31504;51.716;9.184;2023-06-22T10:05:18;25.40;69.70
45803;DHT22;31504;51.716;9.184;2023-06-22T10:08:19;25.40;69.50
45803;DHT22;31504;51.716;9.184;2023-06-22T10:11:19;25.40;69.40
45803;DHT22;31504;51.716;9.184;2023-06-22T10:14:20;25.40;69.30
45803;DHT22;31504;51.716;9.184;2023-06-22T10:17:20;25.40;69.20
45803;DHT22;31504;51.716;9.184;2023-06-22T10:20:21;25.40;69.00
45803;DHT22;31504;51.716;9.184;2023-06-22T10:23:22;25.40;68.50
45803;DHT22;31504;51.716;9.184;2023-06-22T10:26:22;25.40;68.90
45803;DHT22;31504;51.716;9.184;2023-06-22T10:29:23;25.40;68.60
45803;DHT22;31504;51.716;9.184;2023-06-22T10:32:23;25.40;69.00
45803;DHT22;31504;51.716;9.184;2023-06-22T10:35:24;25.40;69.00
45803;DHT22;31504;51.716;9.184;2023-06-22T10:38:24;25.30;69.50
45803;DHT22;31504;51.716;9.184;2023-06-22T10:41:24;25.40;69.20
45803;DHT22;31504;51.716;9.184;2023-06-22T10:44:25;25.40;67.50
45803;DHT22;31504;51.716;9.184;2023-06-22T10:47:25;25.40;66.90
45803;DHT22;31504;51.716;9.184;2023-06-22T10:50:26;25.40;68.60
45803;DHT22;31504;51.716;9.184;2023-06-22T10:53:26;25.40;68.90
45803;DHT22;31504;51.716;9.184;2023-06-22T10:56:27;25.40;67.70
45803;DHT22;31504;51.716;9.184;2023-06-22T10:59:27;25.40;68.60
45803;DHT22;31504;51.716;9.184;2023-06-22T11:02:29;25.40;68.60
45803;DHT22;31504;51.716;9.184;2023-06-22T11:05:29;25.40;68.70
45803;DHT22;31504;51.716;9.184;2023-06-22T11:08:29;25.40;68.10
45803;DHT22;31504;51.716;9.184;2023-06-22T11:11:30;25.40;68.40
45803;DHT22;31504;51.716;9.184;2023-06-22T11:14:30;25.40;68.50
45803;DHT22;31504;51.716;9.184;2023-06-22T11:17:31;25.40;68.50
45803;DHT22;31504;51.716;9.184;2023-06-22T11:20:31;25.40;68.40
45803;DHT22;31504;51.716;9.184;2023-06-22T11:23:34;25.40;68.60
45803;DHT22;31504;51.716;9.184;2023-06-22T11:26:35;25.40;68.50
45803;DHT22;31504;51.716;9.184;2023-06-22T11:29:36;25.40;68.60
45803;DHT22;31504;51.716;9.184;2023-06-22T11:32:36;25.40;68.30
45803;DHT22;31504;51.716;9.184;2023-06-22T11:35:37;25.50;66.50
45803;DHT22;31504;51.716;9.184;2023-06-22T11:38:37;25.40;68.40
45803;DHT22;31504;51.716;9.184;2023-06-22T11:41:39;25.50;67.50
45803;DHT22;31504;51.716;9.184;2023-06-22T11:44:39;25.50;68.60
45803;DHT22;31504;51.716;9.184;2023-06-22T11:47:40;25.50;68.50
45803;DHT22;31504;51.716;9.184;2023-06-22T11:50:40;25.50;68.50
45803;DHT22;31504;51.716;9.184;2023-06-22T11:53:41;25.50;68.60
45803;DHT22;31504;51.716;9.184;2023-06-22T11:56:41;25.50;68.70
45803;DHT22;31504;51.716;9.184;2023-06-22T11:59:42;25.50;67.80
45803;DHT22;31504;51.716;9.184;2023-06-22T12:02:42;25.50;68.90
45803;DHT22;31504;51.716;9.184;2023-06-22T12:05:43;25.50;69.00
45803;DHT22;31504;51.716;9.184;2023-06-22T12:08:43;25.50;67.20
45803;DHT22;31504;51.716;9.184;2023-06-22T12:11:43;25.60;68.70
45803;DHT22;31504;51.716;9.184;2023-06-22T12:14:44;25.50;67.30
45803;DHT22;31504;51.716;9.184;2023-06-22T12:17:44;25.50;68.60
45803;DHT22;31504;51.716;9.184;2023-06-22T12:20:45;25.50;68.50
45803;DHT22;31504;51.716;9.184;2023-06-22T12:23:45;25.50;66.60
45803;DHT22;31504;51.716;9.184;2023-06-22T12:26:46;25.50;68.20
45803;DHT22;31504;51.716;9.184;2023-06-22T12:29:46;25.60;68.40
45803;DHT22;31504;51.716;9.184;2023-06-22T12:32:47;25.60;68.40
45803;DHT22;31504;51.716;9.184;2023-06-22T12:35:48;25.60;68.40
45803;DHT22;31504;51.716;9.184;2023-06-22T12:38:49;25.60;68.50
45803;DHT22;31504;51.716;9.184;2023-06-22T12:41:49;25.60;68.60
45803;DHT22;31504;51.716;9.184;2023-06-22T12:44:50;25.60;68.40
45803;DHT22;31504;51.716;9.184;2023-06-22T12:47:50;25.60;68.50
45803;DHT22;31504;51.716;9.184;2023-06-22T12:50:51;25.60;68.70
45803;DHT22;31504;51.716;9.184;2023-06-22T12:53:51;25.60;68.90
45803;DHT22;31504;51.716;9.184;2023-06-22T12:56:51;25.60;69.10
45803;DHT22;31504;51.716;9.184;2023-06-22T12:59:52;25.60;69.10
45803;DHT22;31504;51.716;9.184;2023-06-22T13:02:52;25.60;69.50
45803;DHT22;31504;51.716;9.184;2023-06-22T13:05:53;25.60;69.60
45803;DHT22;31504;51.716;9.184;2023-06-22T13:08:54;25.60;69.50
45803;DHT22;31504;51.716;9.184;2023-06-22T13:11:54;25.60;70.10
45803;DHT22;31504;51.716;9.184;2023-06-22T13:14:55;25.60;70.40
45803;DHT22;31504;51.716;9.184;2023-06-22T13:17:55;25.60;70.70
45803;DHT22;31504;51.716;9.184;2023-06-22T13:20:56;25.50;71.30
45803;DHT22;31504;51.716;9.184;2023-06-22T13:23:58;25.60;71.60
45803;DHT22;31504;51.716;9.184;2023-06-22T13:26:58;25.50;73.80
45803;DHT22;31504;51.716;9.184;2023-06-22T13:29:59;25.50;75.20
45803;DHT22;31504;51.716;9.184;2023-06-22T13:32:59;25.60;76.60
45803;DHT22;31504;51.716;9.184;2023-06-22T13:36:00;25.60;77.50
45803;DHT22;31504;51.716;9.184;2023-06-22T13:39:00;25.60;77.60
45803;DHT22;31504;51.716;9.184;2023-06-22T13:42:01;25.60;78.40
45803;DHT22;31504;51.716;9.184;2023-06-22T13:45:01;25.60;78.30
45803;DHT22;31504;51.716;9.184;2023-06-22T13:48:02;25.60;77.90
45803;DHT22;31504;51.716;9.184;2023-06-22T13:51:02;25.60;78.20
45803;DHT22;31504;51.716;9.184;2023-06-22T13:54:03;25.60;77.20
45803;DHT22;31504;51.716;9.184;2023-06-22T13:57:03;25.60;77.30
45803;DHT22;31504;51.716;9.184;2023-06-22T14:00:04;25.60;76.50
45803;DHT22;31504;51.716;9.184;2023-06-22T14:03:08;25.60;76.20
45803;DHT22;31504;51.716;9.184;2023-06-22T14:06:09;25.60;76.30
45803;DHT22;31504;51.716;9.184;2023-06-22T14:09:11;25.60;75.80
45803;DHT22;31504;51.716;9.184;2023-06-22T14:12:12;25.60;75.40
45803;DHT22;31504;51.716;9.184;2023-06-22T14:15:12;25.60;75.30
45803;DHT22;31504;51.716;9.184;2023-06-22T14:18:13;25.60;75.00
45803;DHT22;31504;51.716;9.184;2023-06-22T14:21:14;25.60;74.60
45803;DHT22;31504;51.716;9.184;2023-06-22T14:24:15;25.60;74.10
45803;DHT22;31504;51.716;9.184;2023-06-22T14:27:15;25.60;73.70
45803;DHT22;31504;51.716;9.184;2023-06-22T14:30:16;25.60;74.10
45803;DHT22;31504;51.716;9.184;2023-06-22T14:33:16;25.60;74.70
45803;DHT22;31504;51.716;9.184;2023-06-22T14:36:17;25.50;76.20
45803;DHT22;31504;51.716;9.184;2023-06-22T14:39:17;25.40;77.80
45803;DHT22;31504;51.716;9.184;2023-06-22T14:42:18;25.30;79.20
45803;DHT22;31504;51.716;9.184;2023-06-22T14:45:18;25.30;80.20
45803;DHT22;31504;51.716;9.184;2023-06-22T14:48:19;25.30;79.70
45803;DHT22;31504;51.716;9.184;2023-06-22T14:51:19;25.30;79.50
45803;DHT22;31504;51.716;9.184;2023-06-22T14:54:20;25.40;80.10
45803;DHT22;31504;51.716;9.184;2023-06-22T14:57:20;25.40;80.60
45803;DHT22;31504;51.716;9.184;2023-06-22T15:00:23;25.40;79.00
45803;DHT22;31504;51.716;9.184;2023-06-22T15:03:23;25.40;81.40
45803;DHT22;31504;51.716;9.184;2023-06-22T15:06:27;25.40;80.20
45803;DHT22;31504;51.716;9.184;2023-06-22T15:09:28;25.40;80.40
45803;DHT22;31504;51.716;9.184;2023-06-22T15:12:28;25.40;80.10
45803;DHT22;31504;51.716;9.184;2023-06-22T15:15:29;25.30;80.30
45803;DHT22;31504;51.716;9.184;2023-06-22T15:18:29;25.30;80.10
45803;DHT22;31504;51.716;9.184;2023-06-22T15:21:30;25.30;80.00
45803;DHT22;31504;51.716;9.184;2023-06-22T15:24:31;25.30;80.40
45803;DHT22;31504;51.716;9.184;2023-06-22T15:27:31;25.30;80.60
45803;DHT22;31504;51.716;9.184;2023-06-22T15:30:32;25.30;80.70
45803;DHT22;31504;51.716;9.184;2023-06-22T15:33:32;25.30;81.20
45803;DHT22;31504;51.716;9.184;2023-06-22T15:36:33;25.20;80.60
45803;DHT22;31504;51.716;9.184;2023-06-22T15:39:34;25.30;80.10
45803;DHT22;31504;51.716;9.184;2023-06-22T15:42:34;25.20;80.10
45803;DHT22;31504;51.716;9.184;2023-06-22T15:45:35;25.20;80.50
45803;DHT22;31504;51.716;9.184;2023-06-22T15:48:35;25.20;80.60
45803;DHT22;31504;51.716;9.184;2023-06-22T15:51:36;25.20;80.60
45803;DHT22;31504;51.716;9.184;2023-06-22T15:54:36;25.30;79.70
45803;DHT22;31504;51.716;9.184;2023-06-22T15:57:37;25.20;81.30
45803;DHT22;31504;51.716;9.184;2023-06-22T16:00:37;25.20;81.10
45803;DHT22;31504;51.716;9.184;2023-06-22T16:03:38;25.20;80.70
45803;DHT22;31504;51.716;9.184;2023-06-22T16:06:39;25.20;81.00
45803;DHT22;31504;51.716;9.184;2023-06-22T16:09:39;25.20;81.10
45803;DHT22;31504;51.716;9.184;2023-06-22T16:12:41;25.20;80.70
45803;DHT22;31504;51.716;9.184;2023-06-22T16:15:41;25.20;80.70
45803;DHT22;31504;51.716;9.184;2023-06-22T16:18:42;25.20;80.80
45803;DHT22;31504;51.716;9.184;2023-06-22T16:21:42;25.20;80.60
45803;DHT22;31504;51.716;9.184;2023-06-22T16:24:43;25.20;80.70
45803;DHT22;31504;51.716;9.184;2023-06-22T16:27:44;25.20;80.70
45803;DHT22;31504;51.716;9.184;2023-06-22T16:30:44;25.20;81.00
45803;DHT22;31504;51.716;9.184;2023-06-22T16:33:45;25.10;80.80
45803;DHT22;31504;51.716;9.184;2023-06-22T16:36:49;25.10;80.50
45803;DHT22;31504;51.716;9.184;2023-06-22T16:39:50;25.20;81.10
45803;DHT22;31504;51.716;9.184;2023-06-22T16:42:50;25.10;80.80
45803;DHT22;31504;51.716;9.184;2023-06-22T16:45:52;25.10;81.00
45803;DHT22;31504;51.716;9.184;2023-06-22T16:48:52;25.10;81.20
45803;DHT22;31504;51.716;9.184;2023-06-22T16:51:53;25.10;81.20
45803;DHT22;31504;51.716;9.184;2023-06-22T16:58:32;25.20;81.00
45803;DHT22;31504;51.716;9.184;2023-06-22T17:01:33;25.20;81.00
45803;DHT22;31504;51.716;9.184;2023-06-22T17:04:34;25.20;80.90
45803;DHT22;31504;51.716;9.184;2023-06-22T17:07:37;25.10;81.80
45803;DHT22;31504;51.716;9.184;2023-06-22T17:10:38;25.10;81.50
45803;DHT22;31504;51.716;9.184;2023-06-22T17:13:38;25.10;81.70
45803;DHT22;31504;51.716;9.184;2023-06-22T17:16:39;25.10;81.60
45803;DHT22;31504;51.716;9.184;2023-06-22T17:19:42;25.10;81.40
45803;DHT22;31504;51.716;9.184;2023-06-22T17:22:43;25.10;81.60
45803;DHT22;31504;51.716;9.184;2023-06-22T17:25:45;25.10;81.40
45803;DHT22;31504;51.716;9.184;2023-06-22T17:28:49;25.10;81.40
45803;DHT22;31504;51.716;9.184;2023-06-22T17:31:50;25.00;81.80
45803;DHT22;31504;51.716;9.184;2023-06-22T17:38:33;25.00;82.50
45803;DHT22;31504;51.716;9.184;2023-06-22T17:41:37;25.00;82.00
45803;DHT22;31504;51.716;9.184;2023-06-22T17:44:37;25.10;81.90
45803;DHT22;31504;51.716;9.184;2023-06-22T17:47:38;25.10;81.80
45803;DHT22;31504;51.716;9.184;2023-06-22T17:50:42;25.00;81.70
45803;DHT22;31504;51.716;9.184;2023-06-22T17:53:48;25.00;81.70
45803;DHT22;31504;51.716;9.184;2023-06-22T17:56:50;25.00;81.60
45803;DHT22;31504;51.716;9.184;2023-06-22T17:59:50;25.00;81.70
45803;DHT22;31504;51.716;9.184;2023-06-22T18:02:51;25.00;81.80
45803;DHT22;31504;51.716;9.184;2023-06-22T18:05:52;25.00;81.80
45803;DHT22;31504;51.716;9.184;2023-06-22T18:08:57;25.00;82.00
45803;DHT22;31504;51.716;9.184;2023-06-22T18:12:02;24.90;82.60
45803;DHT22;31504;51.716;9.184;2023-06-22T18:15:05;24.90;82.70
45803;DHT22;31504;51.716;9.184;2023-06-22T18:18:05;25.00;82.80
45803;DHT22;31504;51.716;9.184;2023-06-22T18:21:06;24.90;82.50
45803;DHT22;31504;51.716;9.184;2023-06-22T18:24:07;25.00;82.30
45803;DHT22;31504;51.716;9.184;2023-06-22T18:27:10;25.00;82.20
45803;DHT22;31504;51.716;9.184;2023-06-22T18:30:10;25.00;82.20
45803;DHT22;31504;51.716;9.184;2023-06-22T18:33:12;25.00;82.40
45803;DHT22;31504;51.716;9.184;2023-06-22T18:36:13;25.00;82.70
45803;DHT22;31504;51.716;9.184;2023-06-22T18:39:14;25.00;82.90
45803;DHT22;31504;51.716;9.184;2023-06-22T18:42:15;25.00;82.50
45803;DHT22;31504;51.716;9.184;2023-06-22T18:45:23;25.00;82.20
45803;DHT22;31504;51.716;9.184;2023-06-22T18:48:24;25.00;82.30
45803;DHT22;31504;51.716;9.184;2023-06-22T18:51:25;25.00;81.80
45803;DHT22;31504;51.716;9.184;2023-06-22T18:57:41;24.90;81.50
45803;DHT22;31504;51.716;9.184;2023-06-22T19:00:41;24.90;80.90
45803;DHT22;31504;51.716;9.184;2023-06-22T19:03:42;24.90;80.30
45803;DHT22;31504;51.716;9.184;2023-06-22T19:10:20;24.80;79.40
45803;DHT22;31504;51.716;9.184;2023-06-22T19:13:19;24.80;79.30
45803;DHT22;31504;51.716;9.184;2023-06-22T19:16:20;24.90;79.10
45803;DHT22;31504;51.716;9.184;2023-06-22T19:19:28;24.90;78.80